• Join FlightAware (Why Join?)
  • Login
  • US Flag 
06:07AM EST


 

Airport Tracker/Info


-or-


 

Live Flight TrackerFlight Track Log ✈ N717AN ✈ 08-Jun-2013 ✈ SBGR / GRU - KJFK

Flight Track Log - Related Links

Times and Time Zones

All times are in EDT time to prevent confusion due to time zone crossing. See the N717AN flight status page for this flight to view local times or setup timezone preferences in your user account.

Time Position Orientation Groundspeed Altitude Reporting Facility
EDT Latitude Longitude Course Direction KTS MPH feet Rate Location/Type
08:16PM -23.4290 -46.4780 185° South 3 3  Level FlightAware
08:20PM -23.4300 -46.4780 180° South 7 8 180 Level FlightAware
08:21PM -23.4310 -46.4780 180° South 8 9 300 Level FlightAware
08:22PM -23.4310 -46.4790 270° West 8 9 360 Level FlightAware
08:22PM -23.4320 -46.4810 241° Southwest 8 9 420 Level FlightAware
08:23PM -23.4320 -46.4830 270° West 7 8 420 Level FlightAware
08:24PM -23.4330 -46.4840 223° Southwest 5 6 540 Level FlightAware
08:25PM -23.4340 -46.4830 137° Southeast 8 9 540 Level FlightAware
08:25PM -23.4340 -46.4820 90° East 4 5 720 Level FlightAware
08:28PM -23.2002 -46.5842 340° North  Level Estimated
08:28PM -23.4340 -46.4810 340° North 48 55  Level FlightAware
08:28PM -23.4300 -46.4690 70° East 145 167 3,120 Level FlightAware
08:29PM -23.4230 -46.4410 75° East 190 219 2,900 4,200 Climbing FlightAware
08:29PM -23.4160 -46.4170 72° East 193 222 3,900 1,500 Climbing FlightAware
08:29PM -23.4060 -46.3850 71° East 238 274 4,300 900 Climbing FlightAware
08:30PM -23.4000 -46.3630 73° East 256 295 4,800 1,680 Climbing FlightAware
08:30PM -23.3910 -46.3330 72° East 267 307 5,800 2,460 Climbing FlightAware
08:31PM -23.3790 -46.2930 72° East 277 319 7,100 2,460 Climbing FlightAware
08:31PM -23.3730 -46.2750 70° East 277 319 7,800 2,280 Climbing FlightAware
08:32PM -23.3490 -46.2440 50° Northeast 291 335 8,800 2,400 Climbing FlightAware
08:32PM -23.2800 -46.2230 16° North 303 349 10,900 1,680 Climbing FlightAware
08:33PM -23.2120 -46.2050 14° North 361 415 11,600 1,320 Climbing FlightAware
08:34PM -23.1470 -46.1870 14° North 388 447 12,800 2,640 Climbing FlightAware
08:35PM -23.0490 -46.1790 North 400 460 15,200 2,700 Climbing FlightAware
08:35PM -22.9760 -46.1920 351° North 411 473 16,700 2,340 Climbing FlightAware
08:36PM -22.8960 -46.2060 351° North 419 482 18,400 2,100 Climbing FlightAware
08:37PM -22.8180 -46.2190 351° North 437 503 19,600 1,980 Climbing FlightAware
08:37PM -22.7420 -46.2320 351° North 438 504 21,100 2,160 Climbing FlightAware
08:38PM -22.6060 -46.2560 351° North 454 522 23,300 1,920 Climbing FlightAware
08:39PM -22.5110 -46.2730 351° North 458 527 24,600 1,620 Climbing FlightAware
08:40PM -22.4020 -46.2910 351° North 475 547 26,000 1,620 Climbing FlightAware
08:41PM -22.2930 -46.3090 351° North 486 559 27,300 1,560 Climbing FlightAware
08:41PM -22.2020 -46.3250 351° North 489 563 28,300 1,320 Climbing FlightAware
08:42PM -22.1100 -46.3400 351° North 507 583 29,100 1,320 Climbing FlightAware
08:43PM -22.0180 -46.3580 350° North 504 580 30,100 1,800 Climbing FlightAware
08:43PM -21.9220 -46.3760 350° North 503 579 31,600 1,920 Climbing FlightAware
08:44PM -21.8180 -46.3930 351° North 502 578 32,900 960 Climbing FlightAware
08:45PM -21.7250 -46.4080 351° North 491 565 33,000 60 Climbing FlightAware
08:46PM -21.6200 -46.4250 351° North 500 575 33,000  Level FlightAware
08:46PM -21.5300 -46.4400 351° North 492 566 33,000  Level FlightAware
08:47PM -21.4280 -46.4570 351° North 500 575 33,000  Level FlightAware
08:48PM -21.3360 -46.4720 351° North 500 575 33,000  Level FlightAware
08:48PM -21.2440 -46.4870 351° North 500 575 33,000  Level FlightAware
08:49PM -21.1420 -46.5030 352° North 491 565 33,000  Level FlightAware
08:50PM -21.0510 -46.5180 351° North 491 565 33,000  Level FlightAware
08:50PM -20.9460 -46.5350 351° North 491 565 33,000  Level FlightAware
08:51PM -20.8510 -46.5510 351° North 500 575 33,000  Level FlightAware
08:52PM -20.7500 -46.5670 352° North 502 578 33,000  Level FlightAware
08:53PM -20.6650 -46.5810 351° North 501 577 33,000  Level FlightAware
08:53PM -20.5630 -46.5980 351° North 499 574 33,000  Level FlightAware
08:54PM -20.4650 -46.6140 351° North 499 574 33,000  Level FlightAware
08:55PM -20.3650 -46.6330 350° North 500 575 33,000  Level FlightAware
08:55PM -20.2720 -46.6500 350° North 500 575 33,000  Level FlightAware
08:56PM -20.1460 -46.6730 350° North 501 577 33,000  Level FlightAware
08:57PM -20.0430 -46.6910 351° North 503 579 33,000  Level FlightAware
08:58PM -19.9510 -46.7080 350° North 503 579 33,000  Level FlightAware
08:58PM -19.8490 -46.7260 351° North 503 579 33,000  Level FlightAware
08:59PM -19.7580 -46.7430 350° North 503 579 33,000  Level FlightAware
09:00PM -19.6550 -46.7610 351° North 504 580 33,000  Level FlightAware
09:01PM -19.5590 -46.7790 350° North 505 581 33,000  Level FlightAware
09:01PM -19.4670 -46.7950 351° North 504 580 33,000  Level FlightAware
09:02PM -19.3760 -46.8120 350° North 503 579 33,000  Level FlightAware
09:03PM -19.2750 -46.8300 350° North 502 578 33,000  Level FlightAware
09:03PM -19.1740 -46.8470 351° North 501 577 33,000  Level FlightAware
09:04PM -19.0820 -46.8610 352° North 501 577 33,000  Level FlightAware
09:05PM -18.9920 -46.8750 352° North 500 575 33,000  Level FlightAware
09:06PM -18.8680 -46.8950 351° North 499 574 33,000  Level FlightAware
09:06PM -18.7970 -46.9070 351° North 499 574 33,000  Level FlightAware
09:07PM -18.7040 -46.9220 351° North 499 574 33,000  Level FlightAware
09:08PM -18.6320 -46.9340 351° North 499 574 33,000  Level FlightAware
09:08PM -18.5390 -46.9500 351° North 499 574 33,000  Level FlightAware
09:09PM -18.4690 -46.9620 351° North 499 574 33,000  Level FlightAware
09:10PM -18.3760 -46.9770 351° North 499 574 33,000  Level FlightAware
09:10PM -18.3060 -46.9890 351° North 499 574 33,000 60 Level FlightAware
09:11PM -18.1410 -46.9940 358° North 33,000 60 Level FlightAware
09:14PM -17.8304 -47.1284 338° Northwest  Level Estimated
09:15PM -17.7109 -47.1800 338° Northwest  Level Estimated
09:16PM -17.5914 -47.2315 338° Northwest  Level Estimated
09:17PM -17.4719 -47.2830 338° Northwest  Level Estimated
09:18PM -17.3523 -47.3344 338° Northwest  Level Estimated
09:19PM -17.2328 -47.3857 338° Northwest  Level Estimated
09:20PM -17.1132 -47.4369 338° Northwest  Level Estimated
09:21PM -16.9937 -47.4881 338° Northwest  Level Estimated
09:21PM -16.7870 -47.2620 338° Northwest 479 551 34,000  Level FlightAware
09:22PM -16.7080 -47.3120 329° Northwest 473 544 34,000  Level FlightAware
09:22PM -16.6240 -47.3650 329° Northwest 472 543 34,000  Level FlightAware
09:23PM -16.5460 -47.4090 332° Northwest 475 547 34,000  Level FlightAware
09:24PM -16.4610 -47.4580 331° Northwest 475 547 34,000  Level FlightAware
09:24PM -16.3830 -47.5030 331° Northwest 477 549 34,000  Level FlightAware
09:25PM -16.3050 -47.5480 331° Northwest 478 550 34,000  Level FlightAware
09:26PM -16.2180 -47.5980 331° Northwest 479 551 34,000  Level FlightAware
09:27PM -16.1400 -47.6440 330° Northwest 478 550 34,000  Level FlightAware
09:27PM -16.0630 -47.6880 331° Northwest 478 550 34,000  Level FlightAware
09:28PM -15.9760 -47.7380 331° Northwest 478 550 34,000  Level FlightAware
09:29PM -15.8980 -47.7830 331° Northwest 476 548 34,000  Level FlightAware
09:29PM -15.8220 -47.8270 331° Northwest 477 549 34,000  Level FlightAware
09:30PM -15.7350 -47.8770 331° Northwest 477 549 34,000  Level FlightAware
09:31PM -15.6580 -47.9210 331° Northwest 477 549 34,000  Level FlightAware
09:31PM -15.5700 -47.9720 331° Northwest 477 549 34,000  Level FlightAware
09:32PM -15.4920 -48.0160 331° Northwest 476 548 34,000  Level FlightAware
09:33PM -15.4160 -48.0600 331° Northwest 477 549 34,000  Level FlightAware
09:34PM -15.3310 -48.1080 331° Northwest 475 547 34,000  Level FlightAware
09:34PM -15.2570 -48.1500 331° Northwest 474 545 34,000  Level FlightAware
09:35PM -15.1870 -48.1900 331° Northwest 475 547 34,000  Level FlightAware
09:36PM -15.1000 -48.2400 331° Northwest 476 548 34,000  Level FlightAware
09:36PM -15.0130 -48.2890 331° Northwest 476 548 34,000  Level FlightAware
09:37PM -14.9350 -48.3340 331° Northwest 476 548 34,000  Level FlightAware
09:38PM -14.8570 -48.3780 331° Northwest 477 549 34,000  Level FlightAware
09:38PM -14.7720 -48.4260 331° Northwest 476 548 34,000  Level FlightAware
09:39PM -14.7040 -48.4650 331° Northwest 473 544 34,000  Level FlightAware
09:40PM -14.6320 -48.5060 331° Northwest 470 541 34,000  Level FlightAware
09:41PM -14.5110 -48.5750 331° Northwest 471 542 34,000  Level FlightAware
09:41PM -14.4320 -48.6190 332° Northwest 470 541 34,000  Level FlightAware
09:42PM -14.3410 -48.6710 331° Northwest 470 541 34,000  Level FlightAware
09:43PM -14.2630 -48.7160 331° Northwest 470 541 34,000  Level FlightAware
09:44PM -14.2050 -48.7490 331° Northwest 470 541 34,000  Level FlightAware
09:44PM -14.1270 -48.7930 331° Northwest 470 541 34,000  Level FlightAware
09:45PM -14.0690 -48.8270 330° Northwest 470 541 34,000  Level FlightAware
09:46PM -13.9900 -48.8720 331° Northwest 470 541 34,000  Level FlightAware
09:46PM -13.9320 -48.9050 331° Northwest 470 541 34,000  Level FlightAware
09:47PM -13.8540 -48.9490 331° Northwest 470 541 34,000  Level FlightAware
09:48PM -13.7960 -48.9830 330° Northwest 470 541 34,000  Level FlightAware
09:49PM -13.7170 -49.0280 331° Northwest 470 541 34,000  Level FlightAware
09:49PM -13.6550 -49.0630 331° Northwest 470 541 34,000  Level FlightAware
09:50PM -13.5950 -49.0970 331° Northwest 470 541 34,000  Level FlightAware
09:51PM -13.5160 -49.1420 331° Northwest 470 541 34,000  Level FlightAware
09:51PM -13.4560 -49.1760 331° Northwest 470 541 34,000  Level FlightAware
09:54PM -13.1979 -49.2815 338° Northwest  Level Estimated
09:55PM -13.0778 -49.3305 338° Northwest  Level Estimated
09:56PM -12.9577 -49.3794 338° Northwest  Level Estimated
09:56PM -12.8000 -49.5350 338° Northwest 463 533 34,000  Level FlightAware
09:57PM -12.6700 -49.6090 331° Northwest 465 535 34,000  Level FlightAware
09:58PM -12.6120 -49.6410 332° Northwest 465 535 34,000  Level FlightAware
09:58PM -12.5340 -49.6860 331° Northwest 465 535 34,000  Level FlightAware
09:59PM -12.4760 -49.7190 331° Northwest 465 535 34,000  Level FlightAware
10:00PM -12.3990 -49.7620 331° Northwest 465 535 34,000  Level FlightAware
10:01PM -12.3380 -49.7970 331° Northwest 465 535 34,000  Level FlightAware
10:02PM -12.2220 -49.8570 333° Northwest 466 536 34,000  Level FlightAware
10:03PM -12.0420 -49.9570 331° Northwest 466 536 34,000  Level FlightAware
10:04PM -11.8770 -50.0480 332° Northwest 467 537 34,000  Level FlightAware
10:05PM -11.8120 -50.0840 332° Northwest 467 537 34,000  Level FlightAware
10:05PM -11.7280 -50.1300 332° Northwest 466 536 34,000  Level FlightAware
10:06PM -11.6480 -50.1750 331° Northwest 466 536 34,000  Level FlightAware
10:07PM -11.5890 -50.2090 331° Northwest 466 536 34,000  Level FlightAware
10:07PM -11.5280 -50.2430 331° Northwest 466 536 34,000  Level FlightAware
10:08PM -11.7100 -50.1400 151° Southeast 34,000  Level FlightAware
10:08PM -11.4450 -50.2860 332° Northwest 466 536 34,000  Level FlightAware
10:09PM -11.3160 -50.3580 331° Northwest 466 536 34,000  Level FlightAware
10:10PM -11.2580 -50.3900 332° Northwest 466 536 34,000  Level FlightAware
10:10PM -11.3610 -50.3320 151° Southeast 34,000  Level FlightAware
10:11PM -11.0270 -50.5160 332° Northwest 467 537 34,000  Level FlightAware
10:12PM -10.9680 -50.5490 331° Northwest 467 537 34,000  Level FlightAware
10:13PM -10.8660 -50.6040 332° Northwest 467 537 34,000  Level FlightAware
10:13PM -10.8110 -50.6350 331° Northwest 467 537 34,000  Level FlightAware
10:14PM -10.7190 -50.6840 332° Northwest 469 540 34,000  Level FlightAware
10:15PM -10.6550 -50.7210 330° Northwest 469 540 34,000  Level FlightAware
10:16PM -10.5950 -50.7540 332° Northwest 469 540 34,000  Level FlightAware
10:16PM -10.5160 -50.7990 331° Northwest 469 540 34,000  Level FlightAware
10:17PM -10.4580 -50.8320 331° Northwest 469 540 34,000  Level FlightAware
10:18PM -10.3810 -50.8750 331° Northwest 469 540 34,000  Level FlightAware
10:20PM -10.1704 -50.9574 339° North  Level Estimated
10:21PM -10.0500 -51.0045 339° North  Level Estimated
10:22PM -9.9297 -51.0515 339° North  Level Estimated
10:23PM -9.8093 -51.0985 339° North  Level Estimated
10:24PM -9.6889 -51.1454 339° North  Level Estimated
10:25PM -9.5686 -51.1923 339° North  Level Estimated
10:26PM -9.4482 -51.2392 339° North  Level Estimated
10:27PM -9.3278 -51.2861 339° North  Level Estimated
10:28PM -9.2074 -51.3329 339° North  Level Estimated
10:29PM -9.0870 -51.3797 339° North  Level Estimated
10:30PM -8.9666 -51.4264 339° North  Level Estimated
10:31PM -8.8462 -51.4731 339° North  Level Estimated
10:32PM -8.7257 -51.5198 339° North  Level Estimated
10:33PM -8.6053 -51.5665 339° North  Level Estimated
10:34PM -8.4849 -51.6131 339° North  Level Estimated
10:35PM -8.3644 -51.6597 339° North  Level Estimated
10:36PM -8.2440 -51.7063 339° North  Level Estimated
10:37PM -8.1235 -51.7528 339° North  Level Estimated
10:38PM -8.0031 -51.7993 339° North  Level Estimated
10:39PM -7.8826 -51.8458 339° North  Level Estimated
10:40PM -7.7621 -51.8923 339° North  Level Estimated
10:41PM -7.6417 -51.9387 339° North  Level Estimated
10:42PM -7.5212 -51.9851 339° North  Level Estimated
10:43PM -7.4007 -52.0315 339° North  Level Estimated
10:44PM -7.2802 -52.0779 339° North  Level Estimated
10:45PM -7.1597 -52.1242 339° North  Level Estimated
10:46PM -7.0392 -52.1705 339° North  Level Estimated
10:47PM -6.9187 -52.2168 339° North  Level Estimated
10:48PM -6.7982 -52.2630 339° North  Level Estimated
10:49PM -6.6777 -52.3093 339° North  Level Estimated
10:50PM -6.5572 -52.3555 339° North  Level Estimated
10:51PM -6.4367 -52.4017 339° North  Level Estimated
10:52PM -6.3162 -52.4478 339° North  Level Estimated
10:53PM -6.1959 -52.4939 339° North  Level Estimated
10:54PM -6.0756 -52.5400 339° North  Level Estimated
10:55PM -5.9552 -52.5860 339° North  Level Estimated
10:56PM -5.8349 -52.6320 339° North  Level Estimated
10:57PM -5.7146 -52.6780 339° North  Level Estimated
10:58PM -5.5943 -52.7239 339° North  Level Estimated
10:59PM -5.4739 -52.7699 339° North  Level Estimated
11:00PM -5.3536 -52.8158 339° North  Level Estimated
11:01PM -5.2333 -52.8617 339° North  Level Estimated
11:02PM -5.1129 -52.9076 339° North  Level Estimated
11:03PM -4.9926 -52.9535 339° North  Level Estimated
11:04PM -4.8722 -52.9993 339° North  Level Estimated
11:05PM -4.7519 -53.0452 339° North  Level Estimated
11:06PM -4.6313 -53.0911 339° North  Level Estimated
11:07PM -4.5107 -53.1370 339° North  Level Estimated
11:08PM -4.3902 -53.1828 339° North  Level Estimated
11:09PM -4.2696 -53.2287 339° North  Level Estimated
11:10PM -4.1490 -53.2746 339° North  Level Estimated
11:11PM -4.0284 -53.3204 339° North  Level Estimated
11:12PM -3.9078 -53.3662 339° North  Level Estimated
11:13PM -3.7873 -53.4120 339° North  Level Estimated
11:14PM -3.6667 -53.4578 339° North  Level Estimated
11:15PM -3.5461 -53.5036 339° North  Level Estimated
11:16PM -3.4255 -53.5494 339° North  Level Estimated
11:17PM -3.3049 -53.5951 339° North  Level Estimated
11:18PM -3.1843 -53.6409 339° North  Level Estimated
11:19PM -3.0637 -53.6866 339° North  Level Estimated
11:20PM -2.9431 -53.7323 339° North  Level Estimated
11:21PM -2.8224 -53.7780 339° North  Level Estimated
11:22PM -2.7018 -53.8238 339° North  Level Estimated
11:23PM -2.5812 -53.8695 339° North  Level Estimated
11:24PM -2.4608 -53.9151 339° North  Level Estimated
11:25PM -2.3405 -53.9607 339° North  Level Estimated
11:26PM -2.2201 -54.0063 339° North  Level Estimated
11:27PM -2.0996 -54.0518 339° North  Level Estimated
11:28PM -1.9792 -54.0974 339° North  Level Estimated
11:29PM -1.8589 -54.1430 339° North  Level Estimated
11:30PM -1.7385 -54.1885 339° North  Level Estimated
11:31PM -1.6180 -54.2341 339° North  Level Estimated
11:32PM -1.4977 -54.2797 339° North  Level Estimated
11:33PM -1.3772 -54.3252 339° North  Level Estimated
11:34PM -1.2568 -54.3708 339° North  Level Estimated
11:35PM -1.1364 -54.4163 339° North  Level Estimated
11:36PM -1.0160 -54.4618 339° North  Level Estimated
11:37PM -0.8956 -54.5074 339° North  Level Estimated
11:38PM -0.7752 -54.5529 339° North  Level Estimated
11:39PM -0.6548 -54.5984 339° North  Level Estimated
11:40PM -0.5344 -54.6439 339° North  Level Estimated
11:41PM -0.4140 -54.6894 339° North  Level Estimated
11:42PM -0.2936 -54.7350 339° North  Level Estimated
11:43PM -0.1732 -54.7805 339° North  Level Estimated
11:44PM -0.0527 -54.8260 339° North  Level Estimated
11:45PM 0.0677 -54.8715 339° North  Level Estimated
11:46PM 0.1881 -54.9170 339° North  Level Estimated
11:47PM 0.3085 -54.9626 339° North  Level Estimated
11:48PM 0.4289 -55.0081 339° North  Level Estimated
11:49PM 0.5493 -55.0536 339° North  Level Estimated
11:50PM 0.6697 -55.0991 339° North  Level Estimated
11:51PM 0.7901 -55.1446 339° North  Level Estimated
11:52PM 0.9105 -55.1902 339° North  Level Estimated
11:53PM 1.0309 -55.2357 339° North  Level Estimated
11:54PM 1.1514 -55.2812 339° North  Level Estimated
11:55PM 1.2718 -55.3268 339° North  Level Estimated
11:56PM 1.3922 -55.3723 339° North  Level Estimated
11:57PM 1.5126 -55.4179 339° North  Level Estimated
11:58PM 1.6330 -55.4634 339° North  Level Estimated
11:59PM 1.7534 -55.5090 339° North  Level Estimated
12:00AM 1.8738 -55.5545 339° North  Level Estimated
12:01AM 1.9942 -55.6001 339° North  Level Estimated
12:02AM 2.1146 -55.6457 339° North  Level Estimated
12:03AM 2.2350 -55.6913 339° North  Level Estimated
12:04AM 2.3554 -55.7369 339° North  Level Estimated
12:05AM 2.4758 -55.7825 339° North  Level Estimated
12:06AM 2.5961 -55.8281 339° North  Level Estimated
12:07AM 2.7165 -55.8737 339° North  Level Estimated
12:08AM 2.8369 -55.9193 339° North  Level Estimated
12:09AM 2.9573 -55.9649 339° North  Level Estimated
12:10AM 3.0777 -56.0106 339° North  Level Estimated
12:11AM 3.1981 -56.0562 339° North  Level Estimated
12:12AM 3.3185 -56.1019 339° North  Level Estimated
12:13AM 3.4388 -56.1476 339° North  Level Estimated
12:14AM 3.5592 -56.1933 339° North  Level Estimated
12:15AM 3.6796 -56.2390 339° North  Level Estimated
12:16AM 3.8000 -56.2847 339° North  Level Estimated
12:17AM 3.9204 -56.3304 339° North  Level Estimated
12:18AM 4.0407 -56.3761 339° North  Level Estimated
12:19AM 4.1611 -56.4219 339° North  Level Estimated
12:20AM 4.2814 -56.4677 339° North  Level Estimated
12:21AM 4.4018 -56.5135 339° North  Level Estimated
12:22AM 4.5222 -56.5592 339° North  Level Estimated
12:23AM 4.6425 -56.6051 339° North  Level Estimated
12:24AM 4.7629 -56.6509 339° North  Level Estimated
12:25AM 4.8832 -56.6967 339° North  Level Estimated
12:26AM 5.0036 -56.7426 339° North  Level Estimated
12:27AM 5.1239 -56.7885 339° North  Level Estimated
12:28AM 5.2442 -56.8344 339° North  Level Estimated
12:29AM 5.3646 -56.8803 339° North  Level Estimated
12:30AM 5.4836 -56.9257 339° North  Level Estimated
12:31AM 5.6027 -56.9711 339° North  Level Estimated
12:32AM 5.7217 -57.0166 339° North  Level Estimated
12:33AM 5.8407 -57.0621 339° North  Level Estimated
12:34AM 5.9597 -57.1076 339° North  Level Estimated
12:35AM 6.0787 -57.1531 339° North  Level Estimated
12:36AM 6.1978 -57.1987 339° North  Level Estimated
12:37AM 6.3168 -57.2443 339° North  Level Estimated
12:38AM 6.4358 -57.2899 339° North  Level Estimated
12:39AM 6.5548 -57.3355 339° North  Level Estimated
12:40AM 6.6738 -57.3811 339° North  Level Estimated
12:41AM 6.7927 -57.4268 339° North  Level Estimated
12:42AM 6.9117 -57.4724 339° North  Level Estimated
12:43AM 7.0307 -57.5181 339° North  Level Estimated
12:44AM 7.1497 -57.5639 339° North  Level Estimated
12:45AM 7.2687 -57.6096 339° North  Level Estimated
12:46AM 7.3876 -57.6554 339° North  Level Estimated
12:47AM 7.5066 -57.7012 339° North  Level Estimated
12:48AM 7.6256 -57.7470 339° North  Level Estimated
12:49AM 7.7445 -57.7928 339° North  Level Estimated
12:50AM 7.8635 -57.8387 339° North  Level Estimated
12:51AM 7.9824 -57.8846 339° North  Level Estimated
12:52AM 8.1014 -57.9305 339° North  Level Estimated
12:53AM 8.2203 -57.9765 339° North  Level Estimated
12:54AM 8.3392 -58.0225 339° North  Level Estimated
12:55AM 8.4581 -58.0685 339° North  Level Estimated
12:56AM 8.5771 -58.1145 339° North  Level Estimated
12:57AM 8.6960 -58.1606 339° North  Level Estimated
12:58AM 8.8149 -58.2067 339° North  Level Estimated
12:59AM 8.9338 -58.2528 339° North  Level Estimated
01:00AM 9.0527 -58.2990 339° North  Level Estimated
01:01AM 9.1716 -58.3451 339° North  Level Estimated
01:02AM 9.2905 -58.3914 339° North  Level Estimated
01:03AM 9.4094 -58.4376 339° North  Level Estimated
01:04AM 9.5328 -58.4857 339° North  Level Estimated
01:05AM 9.6562 -58.5338 339° North  Level Estimated
01:06AM 9.7797 -58.5819 339° North  Level Estimated
01:07AM 9.9031 -58.6301 339° North  Level Estimated
01:08AM 10.0265 -58.6783 339° North  Level Estimated
01:09AM 10.1499 -58.7265 339° North  Level Estimated
01:09AM 10.2090 -60.5010 339° North 514 592 34,000  Level FlightAware
01:10AM 10.2733 -58.7748 339° North  Level Estimated
01:10AM 10.3240 -60.5870 324° Northwest 512 589 34,000  Level FlightAware
01:11AM 10.2800 -60.5540 144° Southeast 512 589 34,000  Level FlightAware
01:12AM 10.4670 -60.6930 324° Northwest 511 588 34,000  Level FlightAware
01:12AM 10.5450 -60.7510 324° Northwest 511 588 34,000  Level FlightAware
01:13AM 10.6460 -60.8260 324° Northwest 512 589 34,000  Level FlightAware
01:14AM 10.7220 -60.8830 324° Northwest 513 590 34,000  Level FlightAware
01:15AM 10.8260 -60.9610 324° Northwest 513 590 34,000  Level FlightAware
01:15AM 10.9130 -61.0260 324° Northwest 511 588 34,000 600 Level FlightAware
01:16AM 10.9920 -61.0840 324° Northwest 508 585 34,900 1,380 Climbing FlightAware
01:17AM 11.0610 -61.1360 324° Northwest 502 578 36,000 720 Climbing FlightAware
01:17AM 11.1470 -61.2010 323° Northwest 502 578 36,000  Level FlightAware
01:18AM 11.2110 -61.2490 324° Northwest 501 577 36,000  Level FlightAware
01:19AM 11.2940 -61.3110 324° Northwest 503 579 36,000  Level FlightAware
01:20AM 11.3840 -61.3790 323° Northwest 503 579 36,000  Level FlightAware
01:20AM 11.4650 -61.4400 324° Northwest 503 579 36,000  Level FlightAware
01:21AM 11.5280 -61.4870 324° Northwest 504 580 36,000  Level FlightAware
01:22AM 11.6480 -61.5780 323° Northwest 505 581 36,000  Level FlightAware
01:23AM 11.7050 -61.6220 323° Northwest 505 581 36,000  Level FlightAware
01:23AM 11.7810 -61.6800 323° Northwest 505 581 36,000  Level FlightAware
01:24AM 11.8380 -61.7240 323° Northwest 505 581 36,000  Level FlightAware
01:25AM 11.9760 -61.8260 324° Northwest 502 578 36,000  Level FlightAware
01:25AM 12.0600 -61.8880 324° Northwest 501 577 36,000  Level FlightAware
01:26AM 12.1520 -61.9580 323° Northwest 500 575 36,000  Level FlightAware
01:27AM 12.2260 -62.0160 323° Northwest 497 572 36,000  Level FlightAware
01:28AM 12.3010 -62.1070 310° West 494 568 36,000  Level FlightAware
01:29AM 12.3670 -62.1940 308° West 493 567 36,000  Level FlightAware
01:29AM 12.4230 -62.2680 308° West 493 567 36,000  Level FlightAware
01:30AM 12.4810 -62.3440 308° West 492 566 36,000  Level FlightAware
01:31AM 12.5520 -62.4390 307° West 490 564 36,000  Level FlightAware
01:32AM 12.6100 -62.5170 307° West 490 564 36,000  Level FlightAware
01:32AM 12.6810 -62.6130 307° West 489 563 36,000  Level FlightAware
01:33AM 12.7300 -62.6770 308° West 489 563 36,000  Level FlightAware
01:34AM 12.7920 -62.7600 307° West 490 564 36,000  Level FlightAware
01:35AM 12.8890 -62.8880 308° West 487 560 36,000  Level FlightAware
01:36AM 12.9510 -62.9700 308° West 485 558 36,000  Level FlightAware
01:36AM 13.0010 -63.0360 308° West 485 558 36,000  Level FlightAware
01:37AM 13.0790 -63.1410 307° West 486 559 36,000  Level FlightAware
01:38AM 13.1350 -63.2160 307° West 486 559 36,000  Level FlightAware
01:39AM 13.1990 -63.2920 311° West 490 564 36,000  Level FlightAware
01:39AM 13.2810 -63.3430 329° Northwest 493 567 36,000  Level FlightAware
01:40AM 13.3620 -63.3820 335° Northwest 493 567 36,000  Level FlightAware
01:41AM 13.4260 -63.4120 335° Northwest 493 567 36,000  Level FlightAware
01:42AM 13.6020 -63.4920 336° Northwest 36,000  Level FlightAware
01:43AM 13.7140 -63.5450 335° Northwest 494 568 36,000  Level FlightAware
01:44AM 13.7990 -63.5850 335° Northwest 494 568 36,000  Level FlightAware
01:44AM 13.8920 -63.6280 336° Northwest 495 570 36,000  Level FlightAware
01:45AM 13.9790 -63.6690 335° Northwest 495 570 36,000  Level FlightAware
01:46AM 14.0710 -63.7120 336° Northwest 495 570 36,000  Level FlightAware
01:47AM 14.2190 -63.7810 336° Northwest 497 572 36,000  Level FlightAware
01:47AM 14.3020 -63.8200 336° Northwest 498 573 36,000  Level FlightAware
01:48AM 14.3960 -63.8640 336° Northwest 498 573 36,000  Level FlightAware
01:49AM 14.4760 -63.9010 336° Northwest 497 572 36,000  Level FlightAware
01:50AM 14.5760 -63.9480 336° Northwest 497 572 36,000  Level FlightAware
01:51AM 14.7240 -64.0170 336° Northwest 496 571 36,000  Level FlightAware
01:51AM 14.8000 -64.0530 335° Northwest 495 570 36,000  Level FlightAware
01:52AM 14.9230 -64.1100 336° Northwest 495 570 36,000  Level FlightAware
01:53AM 15.0150 -64.1570 334° Northwest 492 566 36,000  Level FlightAware
01:54AM 15.0990 -64.2090 329° Northwest 491 565 36,000  Level FlightAware
01:55AM 15.1740 -64.2580 328° Northwest 491 565 36,000  Level FlightAware
01:55AM 15.0580 -64.1830 148° Southeast 490 564 36,000  Level FlightAware
01:56AM 15.3490 -64.3700 328° Northwest 490 564 36,000  Level FlightAware
01:57AM 15.4070 -64.4080 328° Northwest 490 564 36,000  Level FlightAware
01:58AM 15.4860 -64.4590 328° Northwest 490 564 36,000  Level FlightAware
01:58AM 15.5450 -64.4970 328° Northwest 490 564 36,000  Level FlightAware
01:59AM 15.6230 -64.5480 328° Northwest 490 564 36,000  Level FlightAware
02:00AM 15.6840 -64.5870 328° Northwest 490 564 36,000  Level FlightAware
02:00AM 15.7640 -64.6390 328° Northwest 490 564 36,000  Level FlightAware
02:01AM 15.8240 -64.6790 327° Northwest 490 564 36,000  Level FlightAware
02:02AM 16.0100 -64.7980 328° Northwest 484 557 36,000  Level FlightAware
02:03AM 16.0880 -64.8510 327° Northwest 484 557 36,000  Level FlightAware
02:03AM 16.1850 -64.9140 328° Northwest 485 558 36,000  Level FlightAware
02:04AM 16.2650 -64.9690 327° Northwest 485 558 36,000  Level FlightAware
02:05AM 16.3830 -65.0470 328° Northwest 487 560 36,000  Level FlightAware
02:06AM 16.5150 -65.1350 327° Northwest 485 558 36,000  Level FlightAware
02:07AM 16.6230 -65.2080 327° Northwest 486 559 36,000  Level FlightAware
02:08AM 16.7000 -65.2590 328° Northwest 487 560 36,000  Level FlightAware
02:09AM 16.7750 -65.3100 327° Northwest 487 560 36,000  Level FlightAware
02:09AM 16.8540 -65.3630 327° Northwest 486 559 36,000  Level FlightAware
02:10AM 16.9250 -65.4110 327° Northwest 487 560 36,000  Level FlightAware
02:11AM 17.0060 -65.4650 327° Northwest 487 560 36,000  Level FlightAware
02:11AM 17.0940 -65.5250 327° Northwest 485 558 36,000  Level FlightAware
02:12AM 17.1930 -65.5920 327° Northwest 485 558 36,000  Level FlightAware
02:13AM 17.2830 -65.6530 327° Northwest 486 559 36,000  Level FlightAware
02:14AM 17.3570 -65.7020 328° Northwest 485 558 36,000  Level FlightAware
02:14AM 17.4450 -65.7620 327° Northwest 485 558 36,000  Level FlightAware
02:15AM 17.5200 -65.8140 327° Northwest 487 560 36,000  Level FlightAware
02:16AM 17.6030 -65.8700 327° Northwest 487 560 36,000  Level FlightAware
02:16AM 17.6790 -65.9220 327° Northwest 487 560 36,000  Level FlightAware
02:17AM 17.7630 -65.9780 328° Northwest 487 560 36,000  Level FlightAware
02:18AM 17.8420 -66.0320 327° Northwest 488 562 36,000  Level FlightAware
02:19AM 17.9210 -66.0870 326° Northwest 490 564 36,000  Level FlightAware
02:19AM 18.0050 -66.1440 327° Northwest 489 563 36,000  Level FlightAware
02:20AM 18.0810 -66.1960 327° Northwest 489 563 36,000  Level FlightAware
02:21AM 18.1640 -66.2530 327° Northwest 490 564 36,000  Level FlightAware
02:21AM 18.2410 -66.3050 327° Northwest 490 564 36,000  Level FlightAware
02:22AM 18.3170 -66.3580 326° Northwest 488 562 36,000  Level FlightAware
02:23AM 18.4000 -66.4150 327° Northwest 488 562 36,000  Level FlightAware
02:23AM 18.4750 -66.4660 327° Northwest 490 564 36,000  Level FlightAware
02:24AM 18.5590 -66.5250 326° Northwest 490 564 36,000  Level FlightAware
02:25AM 18.6350 -66.5760 328° Northwest 489 563 36,000  Level FlightAware
02:26AM 18.7190 -66.6350 326° Northwest 488 562 36,000  Level FlightAware
02:26AM 18.7980 -66.6890 327° Northwest 488 562 36,000  Level FlightAware
02:27AM 18.8700 -66.7390 327° Northwest 488 562 36,000  Level FlightAware
02:28AM 18.9530 -66.7970 327° Northwest 489 563 36,000  Level FlightAware
02:28AM 19.0360 -66.8540 327° Northwest 488 562 36,000  Level FlightAware
02:29AM 19.1120 -66.9070 327° Northwest 485 558 36,000  Level FlightAware
02:30AM 19.1870 -66.9590 327° Northwest 484 557 36,000  Level FlightAware
02:31AM 19.2730 -67.0190 327° Northwest 484 557 36,000  Level FlightAware
02:31AM 19.3480 -67.0710 327° Northwest 484 557 36,000  Level FlightAware
02:32AM 19.4280 -67.1270 327° Northwest 484 557 36,000  Level FlightAware
02:33AM 19.5090 -67.1840 326° Northwest 485 558 36,000  Level FlightAware
02:33AM 19.5850 -67.2360 327° Northwest 487 560 36,000  Level FlightAware
02:34AM 19.6650 -67.2920 327° Northwest 487 560 36,000  Level FlightAware
02:35AM 19.7430 -67.3470 326° Northwest 487 560 36,000  Level FlightAware
02:36AM 19.8530 -67.4240 327° Northwest 486 559 36,000  Level FlightAware
02:36AM 19.9280 -67.4770 326° Northwest 485 558 36,000  Level FlightAware
02:37AM 20.0090 -67.5340 327° Northwest 483 556 36,000  Level FlightAware
02:38AM 20.0850 -67.5880 326° Northwest 483 556 36,000  Level FlightAware
02:38AM 20.1450 -67.6300 327° Northwest 484 557 36,000  Level FlightAware
02:39AM 20.2190 -67.6820 327° Northwest 484 557 36,000  Level FlightAware
02:40AM 20.3010 -67.7400 326° Northwest 485 558 36,000  Level FlightAware
02:40AM 20.3770 -67.7940 326° Northwest 484 557 36,000  Level FlightAware
02:41AM 20.4580 -67.8510 327° Northwest 485 558 36,000  Level FlightAware
02:42AM 20.5330 -67.9040 327° Northwest 487 560 36,000  Level FlightAware
02:42AM 20.6180 -67.9470 335° Northwest 493 567 36,000  Level FlightAware
02:43AM 20.7070 -67.9890 336° Northwest 495 570 36,000  Level FlightAware
02:44AM 20.7980 -68.0350 335° Northwest 494 568 36,000  Level FlightAware
02:45AM 20.8870 -68.0780 336° Northwest 495 570 36,000  Level FlightAware
02:45AM 20.9880 -68.1250 337° Northwest 494 568 36,000  Level FlightAware
02:46AM 21.0540 -68.1570 336° Northwest 494 568 36,000  Level FlightAware
02:47AM 21.1640 -68.2090 336° Northwest 494 568 36,000  Level FlightAware
02:48AM 21.2270 -68.2400 335° Northwest 494 568 36,000  Level FlightAware
02:48AM 21.3130 -68.2800 337° Northwest 494 568 36,000  Level FlightAware
02:49AM 21.3770 -68.3110 336° Northwest 494 568 36,000  Level FlightAware
02:50AM 21.4650 -68.3530 336° Northwest 494 568 36,000  Level FlightAware
02:51AM 21.5290 -68.3840 336° Northwest 494 568 36,000  Level FlightAware
02:51AM 21.6140 -68.4250 336° Northwest 494 568 36,000  Level FlightAware
02:52AM 21.6780 -68.4550 336° Northwest 494 568 36,000  Level FlightAware
02:53AM 21.7630 -68.4960 336° Northwest 494 568 36,000  Level FlightAware
02:53AM 21.8270 -68.5270 336° Northwest 494 568 36,000  Level FlightAware
02:54AM 21.9120 -68.5680 336° Northwest 494 568 36,000  Level FlightAware
02:55AM 21.9760 -68.5980 337° Northwest 494 568 36,000  Level FlightAware
02:56AM 22.2758 -68.7275 337° Northwest 494 568 36,000  Level Miami Center
02:57AM 22.4094 -68.7708 343° North 486 559 36,000  Level Miami Center
02:58AM 22.5386 -68.8097 344° North 481 554 36,000  Level Miami Center
02:59AM 22.6658 -68.8492 344° North 481 554 36,000  Level Miami Center
03:00AM 22.8014 -68.8925 344° North 494 568 36,000  Level Miami Center
03:01AM 22.9331 -68.9361 343° North 488 562 36,000  Level Miami Center
03:02AM 23.0622 -68.9756 344° North 488 562 36,000  Level Miami Center
03:03AM 23.1939 -69.0214 342° North 488 562 36,000  Level Miami Center
03:04AM 23.3275 -69.0631 344° North 488 562 36,000  Level Miami Center
03:05AM 23.4589 -69.1069 343° North 494 568 36,000  Level Miami Center
03:06AM 23.5883 -69.1489 343° North 494 568 36,000  Level Miami Center
03:07AM 23.7175 -69.1886 344° North 491 565 36,000  Level Miami Center
03:08AM 23.8494 -69.2372 341° North 486 559 36,000  Level Miami Center
03:09AM 23.9831 -69.2836 342° North 494 568 36,000  Level Miami Center
03:10AM 24.1078 -69.3169 346° North 482 555 36,000  Level Miami Center
03:11AM 24.2394 -69.3636 342° North 482 555 36,000  Level Miami Center
03:12AM 24.3622 -69.3994 345° North 482 555 36,000  Level Miami Center
03:13AM 24.4961 -69.4483 342° North 482 555 36,000  Level Miami Center
03:14AM 24.6236 -69.4908 343° North 482 555 36,000  Level Miami Center
03:15AM 24.7614 -69.5375 343° North 476 548 36,000  Level Miami Center
03:16AM 24.8908 -69.5800 343° North 476 548 36,000  Level Miami Center
03:17AM 25.0033 -69.6214 342° North 468 539 36,000  Level Miami Center
03:18AM 25.1281 -69.6531 348° North 466 536 36,000  Level Miami Center
03:18AM 25.0333 -70.0667 348° North 476 548 36,000  Level New York Oceanic (ODAPS)
03:20AM 25.3384 -69.7004 348° North  Level Estimated
03:25AM 25.9500 -70.2667 348° North 469 540 36,000  Level New York Oceanic (ODAPS)
03:27AM 26.2307 -69.9033 348° North  Level Estimated
03:28AM 26.3582 -69.9325 348° North  Level Estimated
03:29AM 26.4856 -69.9618 348° North  Level Estimated
03:30AM 26.6130 -69.9911 348° North  Level Estimated
03:31AM 26.7199 -70.4500 348° North 469 540 36,000  Level FlightAware Transoceanic
03:32AM 26.8482 -70.4808 348° North 469 540 36,000  Level FlightAware Transoceanic
03:33AM 26.9765 -70.5116 348° North 469 540 36,000  Level FlightAware Transoceanic
03:34AM 27.1048 -70.5426 348° North 469 540 36,000  Level FlightAware Transoceanic
03:35AM 27.2331 -70.5736 348° North 469 540 36,000  Level FlightAware Transoceanic
03:36AM 27.3613 -70.6047 348° North 469 540 36,000  Level FlightAware Transoceanic
03:37AM 27.4896 -70.6358 348° North 469 540 36,000  Level FlightAware Transoceanic
03:38AM 27.6178 -70.6670 348° North 469 540 36,000  Level FlightAware Transoceanic
03:39AM 27.7461 -70.6983 348° North 469 540 36,000  Level FlightAware Transoceanic
03:39AM 27.7000 -70.6833 348° North 463 533 36,000  Level New York Oceanic (ODAPS)
03:40AM 27.8743 -70.7297 348° North 469 540 36,000  Level FlightAware Transoceanic
03:41AM 28.0026 -70.7611 348° North 469 540 36,000  Level FlightAware Transoceanic
03:42AM 28.1308 -70.7926 348° North 469 540 36,000  Level FlightAware Transoceanic
03:43AM 28.2590 -70.8242 348° North 469 540 36,000  Level FlightAware Transoceanic
03:44AM 28.3872 -70.8559 348° North 469 540 36,000  Level FlightAware Transoceanic
03:45AM 28.5001 -70.8826 348° North 463 533 36,000  Level FlightAware Transoceanic
03:46AM 28.6334 -70.9161 348° North 463 533 36,000  Level FlightAware Transoceanic
03:47AM 28.7667 -70.9497 348° North 463 533 36,000  Level FlightAware Transoceanic
03:48AM 28.9000 -70.9833 348° North 463 533 36,000  Level FlightAware Transoceanic
03:48AM 28.8500 -70.9667 344° North 463 533 36,000  Level New York Oceanic (ODAPS)
03:49AM 29.0272 -71.0146 348° North 463 533 36,000  Level FlightAware Transoceanic
03:49AM 28.9833 -71.0000 348° North 464 534 36,000  Level New York Oceanic (ODAPS)
03:50AM 29.1545 -71.0459 348° North 463 533 36,000  Level FlightAware Transoceanic
03:51AM 29.2817 -71.0773 348° North 463 533 36,000  Level FlightAware Transoceanic
03:52AM 29.4089 -71.1088 348° North 463 533 36,000  Level FlightAware Transoceanic
03:53AM 29.5361 -71.1404 348° North 463 533 36,000  Level FlightAware Transoceanic
03:53AM 29.4333 -71.1167 348° North 465 535 36,000  Level New York Oceanic (ODAPS)
03:54AM 29.6633 -71.1720 348° North 463 533 36,000  Level FlightAware Transoceanic
03:55AM 29.7534 -71.1913 348° North 464 534 36,000  Level FlightAware Transoceanic
03:56AM 29.8817 -71.2234 348° North 464 534 36,000  Level FlightAware Transoceanic
03:57AM 30.0100 -71.2557 348° North 464 534 36,000  Level FlightAware Transoceanic
03:58AM 30.1383 -71.2880 348° North 464 534 36,000  Level FlightAware Transoceanic
03:59AM 30.2141 -71.3115 348° North 465 535 36,000  Level FlightAware Transoceanic
04:00AM 30.3442 -71.3443 348° North 465 535 36,000  Level FlightAware Transoceanic
04:01AM 30.4743 -71.3772 348° North 465 535 36,000  Level FlightAware Transoceanic
04:02AM 30.6043 -71.4101 348° North 465 535 36,000  Level FlightAware Transoceanic
04:03AM 30.7344 -71.4431 348° North 465 535 36,000  Level FlightAware Transoceanic
04:04AM 30.8645 -71.4763 348° North 465 535 36,000  Level FlightAware Transoceanic
04:05AM 30.9946 -71.5095 348° North 465 535 36,000  Level FlightAware Transoceanic
04:06AM 31.1246 -71.5428 348° North 465 535 36,000  Level FlightAware Transoceanic
04:06AM 31.1667 -71.5500 348° North 457 526 36,000  Level New York Oceanic (ODAPS)
04:07AM 31.2546 -71.5762 348° North 465 535 36,000  Level FlightAware Transoceanic
04:08AM 31.3847 -71.6097 348° North 465 535 36,000  Level FlightAware Transoceanic
04:09AM 31.5147 -71.6433 348° North 465 535 36,000  Level FlightAware Transoceanic
04:10AM 31.6447 -71.6769 348° North 465 535 36,000  Level FlightAware Transoceanic
04:11AM 31.7747 -71.7107 348° North 465 535 36,000  Level FlightAware Transoceanic
04:12AM 31.9047 -71.7446 348° North 465 535 36,000  Level FlightAware Transoceanic
04:13AM 31.9353 -71.7499 347° North 457 526 36,000  Level FlightAware Transoceanic
04:14AM 32.0634 -71.7836 347° North 457 526 36,000  Level FlightAware Transoceanic
04:14AM 32.0500 -71.7833 348° North 463 533 36,000  Level New York Oceanic (ODAPS)
04:15AM 32.1914 -71.8173 347° North 457 526 36,000  Level FlightAware Transoceanic
04:16AM 32.3195 -71.8512 347° North 457 526 36,000  Level FlightAware Transoceanic
04:17AM 32.4475 -71.8851 347° North 457 526 36,000  Level FlightAware Transoceanic
04:18AM 32.5756 -71.9191 347° North 457 526 36,000  Level FlightAware Transoceanic
04:19AM 32.7036 -71.9532 347° North 457 526 36,000  Level FlightAware Transoceanic
04:20AM 32.8236 -71.9873 347° North 463 533 36,000  Level FlightAware Transoceanic
04:21AM 32.9525 -72.0216 347° North 463 533 36,000  Level FlightAware Transoceanic
04:21AM 33.0333 -72.0500 348° North 469 540 36,000  Level New York Oceanic (ODAPS)
04:22AM 33.0814 -72.0561 347° North 463 533 36,000  Level FlightAware Transoceanic
04:23AM 33.2103 -72.0906 347° North 463 533 36,000  Level FlightAware Transoceanic
04:24AM 33.3391 -72.1252 347° North 463 533 36,000  Level FlightAware Transoceanic
04:25AM 33.4680 -72.1600 347° North 463 533 36,000  Level FlightAware Transoceanic
04:26AM 33.5968 -72.1948 347° North 463 533 36,000  Level FlightAware Transoceanic
04:27AM 33.7257 -72.2298 347° North 463 533 36,000  Level FlightAware Transoceanic
04:28AM 33.8476 -72.2639 348° North 469 540 36,000  Level FlightAware Transoceanic
04:29AM 33.9833 -72.3000 355° North 469 540 36,000  Level FlightAware Transoceanic
04:29AM 33.9833 -72.3000 355° North 475 547 36,000  Level New York Oceanic (ODAPS)
04:30AM 34.1167 -72.3144 355° North 469 540 36,000  Level FlightAware Transoceanic
04:31AM 34.2500 -72.3289 355° North 469 540 36,000  Level FlightAware Transoceanic
04:32AM 34.3834 -72.3434 355° North 469 540 36,000  Level FlightAware Transoceanic
04:33AM 34.5167 -72.3580 355° North 469 540 36,000 -60 Level FlightAware Transoceanic
04:33AM 34.6097 -72.3542 355° North 485 558 35,900  Descending New York Center
04:34AM 34.6500 -72.3726 355° North 469 540 36,000 60 Climbing FlightAware Transoceanic
04:34AM 34.7367 -72.3744 353° North 478 550 36,000  Level New York Center
04:35AM 34.7833 -72.3872 355° North 475 547 36,000 60 Level FlightAware Transoceanic
04:35AM 34.8697 -72.3950 353° North 478 550 36,100 480 Climbing New York Center
04:36AM 34.9967 -72.4256 349° North 478 550 36,900 840 Climbing New York Center
04:37AM 35.1233 -72.4561 349° North 467 537 37,800 540 Climbing New York Center
04:38AM 35.2503 -72.4869 349° North 466 536 38,000  Climbing New York Center
04:39AM 35.3814 -72.5128 351° North 466 536 37,900 -60 Descending New York Center
04:40AM 35.5103 -72.5361 352° North 466 536 37,900  Level New York Center
04:41AM 35.6372 -72.5517 354° North 466 536 38,000  Climbing New York Center
04:42AM 35.7644 -72.5572 358° North 466 536 38,000 -60 Level New York Center
04:43AM 35.9064 -72.5581 360° North 474 545 37,900 -60 Descending New York Center
04:44AM 36.0331 -72.5867 350° North 468 539 37,900  Level New York Center
04:50AM 36.8341 -72.7920 350° North 480 552 38,000  Climbing FlightAware ADS-B
04:51AM 36.9505 -72.8204 349° North 480 552 38,000  Level FlightAware ADS-B
04:52AM 37.0367 -72.8416 349° North 476 548 38,000  Level FlightAware ADS-B
04:52AM 37.1027 -72.8579 349° North 474 545 38,000  Level FlightAware ADS-B
04:53AM 37.1688 -72.8741 349° North 474 545 38,000  Level FlightAware ADS-B
04:53AM 37.2343 -72.8905 349° North 476 548 38,000  Level FlightAware ADS-B
04:54AM 37.3009 -72.9069 349° North 476 548 38,000  Level FlightAware ADS-B
04:54AM 37.3668 -72.9231 349° North 476 548 38,000  Level FlightAware ADS-B
04:55AM 37.4325 -72.9394 349° North 476 548 38,000  Level FlightAware ADS-B
04:56AM 37.5104 -72.9588 349° North 477 549 38,000  Level FlightAware ADS-B
04:56AM 37.5793 -72.9760 349° North 477 549 38,000  Level FlightAware ADS-B
04:57AM 37.6479 -72.9930 349° North 476 548 38,000  Level FlightAware ADS-B
04:57AM 37.7129 -73.0093 349° North 476 548 38,000  Level FlightAware ADS-B
04:58AM 37.7786 -73.0258 349° North 476 548 38,000  Level FlightAware ADS-B
04:58AM 37.8446 -73.0424 349° North 475 547 38,000  Level FlightAware ADS-B
04:59AM 37.9099 -73.0588 349° North 475 547 38,000  Level FlightAware ADS-B
04:59AM 37.9758 -73.0755 349° North 475 547 38,000  Level FlightAware ADS-B
05:00AM 38.0408 -73.0919 349° North 476 548 38,000  Level FlightAware ADS-B
05:00AM 38.1140 -73.1103 349° North 476 548 38,000  Level FlightAware ADS-B
05:01AM 38.2092 -73.1344 349° North 475 547 38,000 -600 Level FlightAware ADS-B
05:02AM 38.3010 -73.1580 349° North 475 547 37,200 -2,160 Descending FlightAware
05:02AM 38.3890 -73.1800 349° North 477 549 35,000 -3,300 Descending FlightAware
05:03AM 38.4770 -73.2030 348° North 488 562 32,700 -3,000 Descending FlightAware
05:04AM 38.5770 -73.2280 349° North 490 564 30,800 -1,140 Descending FlightAware
05:04AM 38.5518 -73.2219 169° South 494 568 31,300 -2,340 Climbing FlightAware ADS-B
05:05AM 38.7138 -73.2632 349° North 475 547 28,500 -3,300 Descending FlightAware ADS-B
05:06AM 38.8470 -73.2980 348° North 462 532 26,200 -2,160 Descending FlightAware
05:07AM 38.9410 -73.3220 349° North 444 511 24,600 -2,100 Descending FlightAware
05:07AM 39.0200 -73.3430 348° North 442 509 23,300 -2,040 Descending FlightAware
05:08AM 39.1000 -73.3630 349° North 425 489 21,900 -1,980 Descending FlightAware
05:09AM 39.1780 -73.3850 348° North 414 476 20,700 -1,320 Descending FlightAware
05:09AM 39.2580 -73.4210 341° North 401 461 20,100 -960 Descending FlightAware
05:10AM 39.3250 -73.4590 336° Northwest 390 449 19,400 -1,080 Descending FlightAware
05:11AM 39.4350 -73.5230 336° Northwest 389 448 18,300 -1,380 Descending FlightAware
05:12AM 39.5000 -73.5610 336° Northwest 381 438 17,100 -1,860 Descending FlightAware
05:13AM 39.5690 -73.6000 336° Northwest 375 432 15,700 -1,860 Descending FlightAware
05:13AM 39.6330 -73.6370 336° Northwest 370 426 14,500 -1,860 Descending FlightAware
05:14AM 39.6980 -73.6750 336° Northwest 364 419 13,200 -1,860 Descending FlightAware
05:15AM 39.7620 -73.7120 336° Northwest 359 413 11,900 -1,800 Descending FlightAware
05:15AM 39.8280 -73.7500 336° Northwest 350 403 10,700 -1,200 Descending FlightAware
05:16AM 39.8890 -73.7730 344° North 334 384 10,300 -660 Descending FlightAware
05:16AM 39.9250 -73.7710 North 323 372 10,000 -420 Descending FlightAware
05:17AM 39.9540 -73.7700 North 305 351 10,000 -300 Level FlightAware
05:17AM 39.9890 -73.7670 North 291 335 9,800 -1,320 Descending FlightAware
05:18AM 40.0250 -73.7530 17° North 304 350 8,900 -2,400 Descending FlightAware
05:18AM 40.0500 -73.7400 22° Northeast 305 351 8,000 -2,640 Descending FlightAware
05:18AM 40.0860 -73.7210 22° Northeast 298 343 6,900 -2,340 Descending FlightAware
05:19AM 40.1200 -73.7030 22° Northeast 284 327 5,900 -2,160 Descending FlightAware
05:19AM 40.1405 -73.6919 22° Northeast 277 319 5,300 -2,340 Descending FlightAware ADS-B
05:20AM 40.1830 -73.6690 22° Northeast 266 306 3,800 -2,340 Descending FlightAware
05:20AM 40.2150 -73.6520 22° Northeast 266 306 2,800 -1,680 Descending FlightAware
05:21AM 40.2460 -73.6380 19° North 261 300 2,300 -960 Descending FlightAware
05:21AM 40.2780 -73.6230 20° North 254 292 1,900 -720 Descending FlightAware
05:21AM 40.2970 -73.6150 18° North 255 293 1,800 -180 Descending FlightAware
05:22AM 40.3190 -73.6050 19° North 257 296 1,800  Level FlightAware
05:22AM 40.3560 -73.5890 18° North 257 296 1,800  Level FlightAware
05:23AM 40.3860 -73.5760 18° North 248 285 1,800  Level FlightAware
05:23AM 40.4210 -73.5610 18° North 248 285 1,800  Level FlightAware
05:24AM 40.4530 -73.5470 18° North 248 285 1,800  Level FlightAware
05:24AM 40.4790 -73.5350 19° North 247 284 1,800  Level FlightAware
05:25AM 40.5090 -73.5240 16° North 226 260 1,800  Level FlightAware
05:25AM 40.5370 -73.5370 341° North 211 243 1,800  Level FlightAware
05:26AM 40.5540 -73.5600 314° West 184 212 1,800  Level FlightAware
05:26AM 40.5640 -73.5830 300° West 175 201 1,800  Level FlightAware
05:26AM 40.5770 -73.6120 301° West 175 201 1,800 60 Level FlightAware
05:27AM 40.5880 -73.6360 301° West 171 197 1,900 -240 Climbing FlightAware
05:27AM 40.5970 -73.6560 301° West 149 171 1,600 -780 Descending FlightAware
05:28AM 40.6090 -73.6820 301° West 147 169 1,200 -720 Descending FlightAware
05:28AM 40.6130 -73.6910 300° West 146 168 1,100 -840 Descending FlightAware
05:29AM 40.6220 -73.7110 301° West 144 166 700 -840 Descending FlightAware
05:29AM 40.6280 -73.7240 301° West 142 163 500 -780 Descending FlightAware
05:29AM 40.6380 -73.7460 301° West 143 165 100 -840 Descending FlightAware
05:30AM 40.6470 -73.7680 298° West 142 163 -240 Descending FlightAware
05:30AM 40.6510 -73.7750 307° West 110 127  Level FlightAware
05:30AM 40.6540 -73.7820 299° West 28 32  Level FlightAware
05:31AM 40.6540 -73.7830 270° West 34 39  Level FlightAware
05:31AM 40.6530 -73.7850 237° Southwest 16 18  Level FlightAware
05:31AM 40.6530 -73.7870 270° West 17 20  Level FlightAware
05:32AM 40.6520 -73.7890 237° Southwest 22 25  Level FlightAware